OOL weather

Gold Coast Airport
Gold Coast, Queensland, Australia

Public forecast

Using degrees Celsius for public forecast. Weather courtesy of forecast.io.

METAR (pilot weather report)

Retrieved 2017/08/20 12:30 UTC (29 minutes ago):

YBCG 201230Z AUTO 19009KT 9999 // NCD 14/06 Q1020 RF00.0/000.0

TAF (pilot weather forecast)

Retrieved 2017/08/20 12:36 UTC (23 minutes ago):

TAF YBCG 201133Z 2012/2112 20008KT CAVOK FM201800 20008KT 9999 FEW035 FM210300 04010KT 9999 FEW045 FM210700 36008KT 9999 SCT030